sensor_id;sensor_type;location;lat;lon;timestamp;temperature;humidity
1602;DHT22;794;48.592;9.634;2023-10-09T00:02:24;10.80;1.00
1602;DHT22;794;48.592;9.634;2023-10-09T00:04:52;10.60;1.00
1602;DHT22;794;48.592;9.634;2023-10-09T00:07:23;10.80;1.00
1602;DHT22;794;48.592;9.634;2023-10-09T00:09:57;10.60;1.00
1602;DHT22;794;48.592;9.634;2023-10-09T00:12:37;10.70;1.00
1602;DHT22;794;48.592;9.634;2023-10-09T00:15:10;10.60;1.00
1602;DHT22;794;48.592;9.634;2023-10-09T00:17:38;10.40;1.00
1602;DHT22;794;48.592;9.634;2023-10-09T00:20:11;10.50;1.00
1602;DHT22;794;48.592;9.634;2023-10-09T00:22:50;10.70;1.00
1602;DHT22;794;48.592;9.634;2023-10-09T00:25:22;10.30;1.00
1602;DHT22;794;48.592;9.634;2023-10-09T00:27:58;10.40;1.00
1602;DHT22;794;48.592;9.634;2023-10-09T00:30:28;10.20;1.00
1602;DHT22;794;48.592;9.634;2023-10-09T00:32:58;10.50;1.00
1602;DHT22;794;48.592;9.634;2023-10-09T00:35:36;10.50;1.00
1602;DHT22;794;48.592;9.634;2023-10-09T00:38:03;10.30;1.00
1602;DHT22;794;48.592;9.634;2023-10-09T00:40:43;10.20;1.00
1602;DHT22;794;48.592;9.634;2023-10-09T00:43:18;10.10;1.00
1602;DHT22;794;48.592;9.634;2023-10-09T00:45:46;10.30;1.00
1602;DHT22;794;48.592;9.634;2023-10-09T00:48:16;10.20;1.00
1602;DHT22;794;48.592;9.634;2023-10-09T00:50:49;10.30;1.00
1602;DHT22;794;48.592;9.634;2023-10-09T00:53:22;10.40;1.00
1602;DHT22;794;48.592;9.634;2023-10-09T00:56:00;10.60;1.00
1602;DHT22;794;48.592;9.634;2023-10-09T00:58:45;10.50;1.00
1602;DHT22;794;48.592;9.634;2023-10-09T01:01:23;10.40;1.00
1602;DHT22;794;48.592;9.634;2023-10-09T01:04:03;9.80;1.00
1602;DHT22;794;48.592;9.634;2023-10-09T01:06:36;10.40;1.00
1602;DHT22;794;48.592;9.634;2023-10-09T01:09:12;10.30;1.00
1602;DHT22;794;48.592;9.634;2023-10-09T01:11:40;10.30;1.00
1602;DHT22;794;48.592;9.634;2023-10-09T01:14:29;10.50;1.00
1602;DHT22;794;48.592;9.634;2023-10-09T01:17:01;10.50;1.00
1602;DHT22;794;48.592;9.634;2023-10-09T01:19:32;10.30;1.00
1602;DHT22;794;48.592;9.634;2023-10-09T01:22:00;10.40;1.00
1602;DHT22;794;48.592;9.634;2023-10-09T01:24:31;10.60;1.00
1602;DHT22;794;48.592;9.634;2023-10-09T01:27:02;10.40;1.00
1602;DHT22;794;48.592;9.634;2023-10-09T01:29:33;10.50;1.00
1602;DHT22;794;48.592;9.634;2023-10-09T01:32:03;10.70;1.00
1602;DHT22;794;48.592;9.634;2023-10-09T01:34:33;10.60;1.00
1602;DHT22;794;48.592;9.634;2023-10-09T01:37:08;10.80;1.00
1602;DHT22;794;48.592;9.634;2023-10-09T01:39:39;10.40;1.00
1602;DHT22;794;48.592;9.634;2023-10-09T01:42:08;10.50;1.00
1602;DHT22;794;48.592;9.634;2023-10-09T01:44:39;10.50;1.00
1602;DHT22;794;48.592;9.634;2023-10-09T01:47:10;11.50;1.00
1602;DHT22;794;48.592;9.634;2023-10-09T01:49:40;10.70;1.00
1602;DHT22;794;48.592;9.634;2023-10-09T01:52:15;10.60;1.00
1602;DHT22;794;48.592;9.634;2023-10-09T01:54:50;10.60;1.00
1602;DHT22;794;48.592;9.634;2023-10-09T01:57:27;11.00;1.00
1602;DHT22;794;48.592;9.634;2023-10-09T01:59:56;10.80;1.00
1602;DHT22;794;48.592;9.634;2023-10-09T02:02:23;11.20;1.00
1602;DHT22;794;48.592;9.634;2023-10-09T02:05:00;11.20;1.00
1602;DHT22;794;48.592;9.634;2023-10-09T02:07:36;11.10;1.00
1602;DHT22;794;48.592;9.634;2023-10-09T02:10:19;11.20;1.00
1602;DHT22;794;48.592;9.634;2023-10-09T02:12:57;11.10;1.00
1602;DHT22;794;48.592;9.634;2023-10-09T02:15:29;11.40;1.00
1602;DHT22;794;48.592;9.634;2023-10-09T02:18:17;11.20;1.00
1602;DHT22;794;48.592;9.634;2023-10-09T02:20:52;11.70;1.00
1602;DHT22;794;48.592;9.634;2023-10-09T02:23:27;11.50;1.00
1602;DHT22;794;48.592;9.634;2023-10-09T02:26:06;11.70;1.00
1602;DHT22;794;48.592;9.634;2023-10-09T02:28:34;11.40;1.00
1602;DHT22;794;48.592;9.634;2023-10-09T02:31:09;11.90;1.00
1602;DHT22;794;48.592;9.634;2023-10-09T02:33:39;11.70;1.00
1602;DHT22;794;48.592;9.634;2023-10-09T02:36:08;11.80;1.00
1602;DHT22;794;48.592;9.634;2023-10-09T02:38:35;11.80;1.00
1602;DHT22;794;48.592;9.634;2023-10-09T02:41:09;11.60;1.00
1602;DHT22;794;48.592;9.634;2023-10-09T02:43:54;11.80;1.00
1602;DHT22;794;48.592;9.634;2023-10-09T02:46:22;11.90;1.00
1602;DHT22;794;48.592;9.634;2023-10-09T02:48:59;11.70;1.00
1602;DHT22;794;48.592;9.634;2023-10-09T02:51:30;11.60;1.00
1602;DHT22;794;48.592;9.634;2023-10-09T02:54:00;11.60;1.00
1602;DHT22;794;48.592;9.634;2023-10-09T02:56:38;11.90;1.00
1602;DHT22;794;48.592;9.634;2023-10-09T02:59:09;11.70;1.00
1602;DHT22;794;48.592;9.634;2023-10-09T03:01:39;12.00;1.00
1602;DHT22;794;48.592;9.634;2023-10-09T03:04:08;11.90;1.00
1602;DHT22;794;48.592;9.634;2023-10-09T03:06:40;11.90;1.00
1602;DHT22;794;48.592;9.634;2023-10-09T03:09:09;12.00;1.00
1602;DHT22;794;48.592;9.634;2023-10-09T03:11:45;12.30;1.00
1602;DHT22;794;48.592;9.634;2023-10-09T03:14:13;12.10;1.00
1602;DHT22;794;48.592;9.634;2023-10-09T03:16:46;12.20;1.00
1602;DHT22;794;48.592;9.634;2023-10-09T03:19:15;12.10;1.00
1602;DHT22;794;48.592;9.634;2023-10-09T03:21:42;12.40;1.00
1602;DHT22;794;48.592;9.634;2023-10-09T03:24:14;12.60;1.00
1602;DHT22;794;48.592;9.634;2023-10-09T03:26:41;12.40;1.00
1602;DHT22;794;48.592;9.634;2023-10-09T03:29:12;12.50;1.00
1602;DHT22;794;48.592;9.634;2023-10-09T03:31:39;12.70;1.00
1602;DHT22;794;48.592;9.634;2023-10-09T03:34:08;12.70;1.00
1602;DHT22;794;48.592;9.634;2023-10-09T03:36:39;12.50;1.00
1602;DHT22;794;48.592;9.634;2023-10-09T03:39:08;12.80;1.00
1602;DHT22;794;48.592;9.634;2023-10-09T03:41:49;12.90;1.00
1602;DHT22;794;48.592;9.634;2023-10-09T03:44:21;12.60;1.00
1602;DHT22;794;48.592;9.634;2023-10-09T03:46:48;12.60;1.00
1602;DHT22;794;48.592;9.634;2023-10-09T03:49:17;13.00;1.00
1602;DHT22;794;48.592;9.634;2023-10-09T03:51:49;13.00;1.00
1602;DHT22;794;48.592;9.634;2023-10-09T03:54:19;13.00;1.00
1602;DHT22;794;48.592;9.634;2023-10-09T03:56:50;13.00;1.00
1602;DHT22;794;48.592;9.634;2023-10-09T03:59:17;12.70;1.00
1602;DHT22;794;48.592;9.634;2023-10-09T04:01:47;12.70;1.00
1602;DHT22;794;48.592;9.634;2023-10-09T04:04:16;13.00;1.00
1602;DHT22;794;48.592;9.634;2023-10-09T04:06:43;13.10;1.00
1602;DHT22;794;48.592;9.634;2023-10-09T04:09:12;12.90;1.00
1602;DHT22;794;48.592;9.634;2023-10-09T04:11:54;12.80;1.00
1602;DHT22;794;48.592;9.634;2023-10-09T04:14:44;12.90;1.00
1602;DHT22;794;48.592;9.634;2023-10-09T04:17:20;13.00;1.00
1602;DHT22;794;48.592;9.634;2023-10-09T04:20:00;12.90;1.00
1602;DHT22;794;48.592;9.634;2023-10-09T04:22:45;12.90;1.00
1602;DHT22;794;48.592;9.634;2023-10-09T04:25:28;13.00;1.00
1602;DHT22;794;48.592;9.634;2023-10-09T04:27:59;13.00;1.00
1602;DHT22;794;48.592;9.634;2023-10-09T04:30:35;13.00;1.00
1602;DHT22;794;48.592;9.634;2023-10-09T04:33:07;13.20;1.00
1602;DHT22;794;48.592;9.634;2023-10-09T04:35:54;13.00;1.00
1602;DHT22;794;48.592;9.634;2023-10-09T04:38:35;13.20;1.00
1602;DHT22;794;48.592;9.634;2023-10-09T04:41:05;12.90;1.00
1602;DHT22;794;48.592;9.634;2023-10-09T04:43:34;13.10;1.00
1602;DHT22;794;48.592;9.634;2023-10-09T04:45:59;13.10;1.00
1602;DHT22;794;48.592;9.634;2023-10-09T04:48:35;12.90;1.00
1602;DHT22;794;48.592;9.634;2023-10-09T04:51:05;13.00;1.00
1602;DHT22;794;48.592;9.634;2023-10-09T04:54:00;12.90;1.00
1602;DHT22;794;48.592;9.634;2023-10-09T04:56:39;13.00;1.00
1602;DHT22;794;48.592;9.634;2023-10-09T04:59:18;13.40;1.00
1602;DHT22;794;48.592;9.634;2023-10-09T05:01:45;12.80;1.00
1602;DHT22;794;48.592;9.634;2023-10-09T05:04:25;12.90;1.00
1602;DHT22;794;48.592;9.634;2023-10-09T05:07:08;12.80;1.00
1602;DHT22;794;48.592;9.634;2023-10-09T05:09:55;13.30;1.00
1602;DHT22;794;48.592;9.634;2023-10-09T05:12:44;12.90;1.00
1602;DHT22;794;48.592;9.634;2023-10-09T05:15:22;12.90;1.00
1602;DHT22;794;48.592;9.634;2023-10-09T05:17:52;13.20;1.00
1602;DHT22;794;48.592;9.634;2023-10-09T05:20:23;12.80;1.00
1602;DHT22;794;48.592;9.634;2023-10-09T05:23:08;12.80;1.00
1602;DHT22;794;48.592;9.634;2023-10-09T05:26:04;13.10;1.00
1602;DHT22;794;48.592;9.634;2023-10-09T05:28:52;12.90;1.00
1602;DHT22;794;48.592;9.634;2023-10-09T05:31:18;13.00;1.00
1602;DHT22;794;48.592;9.634;2023-10-09T05:34:12;13.00;1.00
1602;DHT22;794;48.592;9.634;2023-10-09T05:36:45;12.80;1.00
1602;DHT22;794;48.592;9.634;2023-10-09T05:39:13;13.10;1.00
1602;DHT22;794;48.592;9.634;2023-10-09T05:41:47;13.00;1.00
1602;DHT22;794;48.592;9.634;2023-10-09T05:44:18;12.90;1.00
1602;DHT22;794;48.592;9.634;2023-10-09T05:47:03;12.90;1.00
1602;DHT22;794;48.592;9.634;2023-10-09T05:49:49;13.20;1.00
1602;DHT22;794;48.592;9.634;2023-10-09T05:52:44;13.20;1.00
1602;DHT22;794;48.592;9.634;2023-10-09T05:55:29;13.30;1.00
1602;DHT22;794;48.592;9.634;2023-10-09T05:58:14;13.10;1.00
1602;DHT22;794;48.592;9.634;2023-10-09T06:00:58;13.10;1.00
1602;DHT22;794;48.592;9.634;2023-10-09T06:03:42;13.10;1.00
1602;DHT22;794;48.592;9.634;2023-10-09T06:06:22;13.10;1.00
1602;DHT22;794;48.592;9.634;2023-10-09T06:09:09;12.70;1.00
1602;DHT22;794;48.592;9.634;2023-10-09T06:11:53;13.10;1.00
1602;DHT22;794;48.592;9.634;2023-10-09T06:14:44;13.00;1.00
1602;DHT22;794;48.592;9.634;2023-10-09T06:17:23;13.30;1.00
1602;DHT22;794;48.592;9.634;2023-10-09T06:19:53;13.40;1.00
1602;DHT22;794;48.592;9.634;2023-10-09T06:22:26;13.30;1.00
1602;DHT22;794;48.592;9.634;2023-10-09T06:25:10;13.30;1.00
1602;DHT22;794;48.592;9.634;2023-10-09T06:27:38;14.00;1.00
1602;DHT22;794;48.592;9.634;2023-10-09T06:30:22;13.70;1.00
1602;DHT22;794;48.592;9.634;2023-10-09T06:33:00;13.80;1.00
1602;DHT22;794;48.592;9.634;2023-10-09T06:35:47;13.90;1.00
1602;DHT22;794;48.592;9.634;2023-10-09T06:38:24;14.10;1.00
1602;DHT22;794;48.592;9.634;2023-10-09T06:40:59;14.10;1.00
1602;DHT22;794;48.592;9.634;2023-10-09T06:43:43;14.20;1.00
1602;DHT22;794;48.592;9.634;2023-10-09T06:46:19;14.30;1.00
1602;DHT22;794;48.592;9.634;2023-10-09T06:49:09;14.40;1.00
1602;DHT22;794;48.592;9.634;2023-10-09T06:51:55;14.60;1.00
1602;DHT22;794;48.592;9.634;2023-10-09T06:54:42;14.70;1.00
1602;DHT22;794;48.592;9.634;2023-10-09T06:57:18;14.80;1.00
1602;DHT22;794;48.592;9.634;2023-10-09T06:59:59;14.90;1.00
1602;DHT22;794;48.592;9.634;2023-10-09T07:02:43;15.10;1.00
1602;DHT22;794;48.592;9.634;2023-10-09T07:05:12;15.20;1.00
1602;DHT22;794;48.592;9.634;2023-10-09T07:07:43;15.40;1.00
1602;DHT22;794;48.592;9.634;2023-10-09T07:10:22;15.40;1.00
1602;DHT22;794;48.592;9.634;2023-10-09T07:12:59;15.50;1.00
1602;DHT22;794;48.592;9.634;2023-10-09T07:15:28;15.60;1.00
1602;DHT22;794;48.592;9.634;2023-10-09T07:18:12;17.30;1.00
1602;DHT22;794;48.592;9.634;2023-10-09T07:21:13;15.90;1.00
1602;DHT22;794;48.592;9.634;2023-10-09T07:23:54;16.00;1.00
1602;DHT22;794;48.592;9.634;2023-10-09T07:26:24;16.10;1.00
1602;DHT22;794;48.592;9.634;2023-10-09T07:29:03;16.30;1.00
1602;DHT22;794;48.592;9.634;2023-10-09T07:31:48;16.40;1.00
1602;DHT22;794;48.592;9.634;2023-10-09T07:34:23;17.30;1.00
1602;DHT22;794;48.592;9.634;2023-10-09T07:37:19;16.70;1.00
1602;DHT22;794;48.592;9.634;2023-10-09T07:39:49;16.90;1.00
1602;DHT22;794;48.592;9.634;2023-10-09T07:42:24;17.00;1.00
1602;DHT22;794;48.592;9.634;2023-10-09T07:45:09;17.20;1.00
1602;DHT22;794;48.592;9.634;2023-10-09T07:47:59;17.50;1.00
1602;DHT22;794;48.592;9.634;2023-10-09T07:50:35;17.60;1.00
1602;DHT22;794;48.592;9.634;2023-10-09T07:53:09;17.80;1.00
1602;DHT22;794;48.592;9.634;2023-10-09T07:55:45;17.90;1.00
1602;DHT22;794;48.592;9.634;2023-10-09T07:58:28;18.10;1.00
1602;DHT22;794;48.592;9.634;2023-10-09T08:00:57;18.20;1.00
1602;DHT22;794;48.592;9.634;2023-10-09T08:03:33;18.30;1.00
1602;DHT22;794;48.592;9.634;2023-10-09T08:06:03;18.50;1.00
1602;DHT22;794;48.592;9.634;2023-10-09T08:08:54;18.50;1.00
1602;DHT22;794;48.592;9.634;2023-10-09T08:11:39;18.70;1.00
1602;DHT22;794;48.592;9.634;2023-10-09T08:14:27;18.80;1.00
1602;DHT22;794;48.592;9.634;2023-10-09T08:17:08;19.00;1.00
1602;DHT22;794;48.592;9.634;2023-10-09T08:19:42;19.10;1.00
1602;DHT22;794;48.592;9.634;2023-10-09T08:22:24;18.60;1.00
1602;DHT22;794;48.592;9.634;2023-10-09T08:25:19;20.20;1.00
1602;DHT22;794;48.592;9.634;2023-10-09T08:27:55;19.60;1.00
1602;DHT22;794;48.592;9.634;2023-10-09T08:30:47;19.90;1.00
1602;DHT22;794;48.592;9.634;2023-10-09T08:33:15;20.20;1.00
1602;DHT22;794;48.592;9.634;2023-10-09T08:36:04;20.40;1.00
1602;DHT22;794;48.592;9.634;2023-10-09T08:38:33;20.70;1.00
1602;DHT22;794;48.592;9.634;2023-10-09T08:41:08;20.90;1.00
1602;DHT22;794;48.592;9.634;2023-10-09T08:43:50;21.10;1.00
1602;DHT22;794;48.592;9.634;2023-10-09T08:46:24;21.30;1.00
1602;DHT22;794;48.592;9.634;2023-10-09T08:48:54;21.50;1.00
1602;DHT22;794;48.592;9.634;2023-10-09T08:51:22;21.60;1.00
1602;DHT22;794;48.592;9.634;2023-10-09T08:53:50;21.80;1.00
1602;DHT22;794;48.592;9.634;2023-10-09T08:56:21;21.90;1.00
1602;DHT22;794;48.592;9.634;2023-10-09T08:58:53;21.90;1.00
1602;DHT22;794;48.592;9.634;2023-10-09T09:01:22;22.20;1.00
1602;DHT22;794;48.592;9.634;2023-10-09T09:03:51;22.10;1.00
1602;DHT22;794;48.592;9.634;2023-10-09T09:06:21;22.20;1.00
1602;DHT22;794;48.592;9.634;2023-10-09T09:08:50;22.20;1.00
1602;DHT22;794;48.592;9.634;2023-10-09T09:11:20;22.00;1.00
1602;DHT22;794;48.592;9.634;2023-10-09T09:14:01;22.00;1.00
1602;DHT22;794;48.592;9.634;2023-10-09T09:16:33;22.10;1.00
1602;DHT22;794;48.592;9.634;2023-10-09T09:19:01;22.00;1.00
1602;DHT22;794;48.592;9.634;2023-10-09T09:21:31;22.00;1.00
1602;DHT22;794;48.592;9.634;2023-10-09T09:24:11;22.00;1.00
1602;DHT22;794;48.592;9.634;2023-10-09T09:26:53;22.00;1.00
1602;DHT22;794;48.592;9.634;2023-10-09T09:29:38;22.20;1.00
1602;DHT22;794;48.592;9.634;2023-10-09T09:32:08;21.80;1.00
1602;DHT22;794;48.592;9.634;2023-10-09T09:34:47;22.40;1.00
1602;DHT22;794;48.592;9.634;2023-10-09T09:37:19;22.40;1.00
1602;DHT22;794;48.592;9.634;2023-10-09T09:39:54;22.40;1.00
1602;DHT22;794;48.592;9.634;2023-10-09T09:42:27;22.90;1.00
1602;DHT22;794;48.592;9.634;2023-10-09T09:45:00;22.80;1.00
1602;DHT22;794;48.592;9.634;2023-10-09T09:47:29;23.00;1.00
1602;DHT22;794;48.592;9.634;2023-10-09T09:49:57;23.20;1.00
1602;DHT22;794;48.592;9.634;2023-10-09T09:52:38;23.30;1.00
1602;DHT22;794;48.592;9.634;2023-10-09T09:55:07;23.40;1.00
1602;DHT22;794;48.592;9.634;2023-10-09T09:57:41;23.40;1.00
1602;DHT22;794;48.592;9.634;2023-10-09T10:00:14;23.40;1.00
1602;DHT22;794;48.592;9.634;2023-10-09T10:03:01;23.30;1.00
1602;DHT22;794;48.592;9.634;2023-10-09T10:05:31;23.10;1.00
1602;DHT22;794;48.592;9.634;2023-10-09T10:07:59;23.10;1.00
1602;DHT22;794;48.592;9.634;2023-10-09T10:10:37;23.10;1.00
1602;DHT22;794;48.592;9.634;2023-10-09T10:13:13;22.70;1.00
1602;DHT22;794;48.592;9.634;2023-10-09T10:16:00;23.10;1.00
1602;DHT22;794;48.592;9.634;2023-10-09T10:18:59;23.20;1.00
1602;DHT22;794;48.592;9.634;2023-10-09T10:21:33;23.20;1.00
1602;DHT22;794;48.592;9.634;2023-10-09T10:24:44;23.20;1.00
1602;DHT22;794;48.592;9.634;2023-10-09T10:27:25;23.20;1.00
1602;DHT22;794;48.592;9.634;2023-10-09T10:30:27;23.40;1.00
1602;DHT22;794;48.592;9.634;2023-10-09T10:33:00;23.60;1.00
1602;DHT22;794;48.592;9.634;2023-10-09T10:35:37;23.70;1.00
1602;DHT22;794;48.592;9.634;2023-10-09T10:38:29;24.00;1.00
1602;DHT22;794;48.592;9.634;2023-10-09T10:41:23;23.90;1.00
1602;DHT22;794;48.592;9.634;2023-10-09T10:43:50;23.80;1.00
1602;DHT22;794;48.592;9.634;2023-10-09T10:46:49;23.80;1.00
1602;DHT22;794;48.592;9.634;2023-10-09T10:49:19;22.90;1.00
1602;DHT22;794;48.592;9.634;2023-10-09T10:52:03;23.50;1.00
1602;DHT22;794;48.592;9.634;2023-10-09T10:54:44;23.30;1.00
1602;DHT22;794;48.592;9.634;2023-10-09T10:57:18;23.20;1.00
1602;DHT22;794;48.592;9.634;2023-10-09T11:00:18;23.20;1.00
1602;DHT22;794;48.592;9.634;2023-10-09T11:02:59;23.40;1.00
1602;DHT22;794;48.592;9.634;2023-10-09T11:05:43;23.40;1.00
1602;DHT22;794;48.592;9.634;2023-10-09T11:08:24;23.40;1.00
1602;DHT22;794;48.592;9.634;2023-10-09T11:11:10;23.50;1.00
1602;DHT22;794;48.592;9.634;2023-10-09T11:14:09;23.40;1.00
1602;DHT22;794;48.592;9.634;2023-10-09T11:16:40;23.30;1.00
1602;DHT22;794;48.592;9.634;2023-10-09T11:19:14;22.00;1.00
1602;DHT22;794;48.592;9.634;2023-10-09T11:21:55;23.20;1.00
1602;DHT22;794;48.592;9.634;2023-10-09T11:24:50;23.20;1.00
1602;DHT22;794;48.592;9.634;2023-10-09T11:27:40;23.00;1.00
1602;DHT22;794;48.592;9.634;2023-10-09T11:30:35;21.70;1.00
1602;DHT22;794;48.592;9.634;2023-10-09T11:33:16;22.70;1.00
1602;DHT22;794;48.592;9.634;2023-10-09T11:35:54;22.70;1.00
1602;DHT22;794;48.592;9.634;2023-10-09T11:38:24;22.60;1.00
1602;DHT22;794;48.592;9.634;2023-10-09T11:40:57;22.70;1.00
1602;DHT22;794;48.592;9.634;2023-10-09T11:43:51;22.60;1.00
1602;DHT22;794;48.592;9.634;2023-10-09T11:46:17;22.70;1.00
1602;DHT22;794;48.592;9.634;2023-10-09T11:49:05;22.60;1.00
1602;DHT22;794;48.592;9.634;2023-10-09T11:51:52;22.90;1.00
1602;DHT22;794;48.592;9.634;2023-10-09T11:54:59;23.20;1.00
1602;DHT22;794;48.592;9.634;2023-10-09T11:57:29;23.50;1.00
1602;DHT22;794;48.592;9.634;2023-10-09T12:00:00;23.70;1.00
1602;DHT22;794;48.592;9.634;2023-10-09T12:02:32;23.90;1.00
1602;DHT22;794;48.592;9.634;2023-10-09T12:05:09;23.70;1.00
1602;DHT22;794;48.592;9.634;2023-10-09T12:07:43;23.70;1.00
1602;DHT22;794;48.592;9.634;2023-10-09T12:10:14;23.70;1.00
1602;DHT22;794;48.592;9.634;2023-10-09T12:12:51;25.10;1.00
1602;DHT22;794;48.592;9.634;2023-10-09T12:15:18;24.00;1.00
1602;DHT22;794;48.592;9.634;2023-10-09T12:17:46;23.30;1.00
1602;DHT22;794;48.592;9.634;2023-10-09T12:20:19;23.10;1.00
1602;DHT22;794;48.592;9.634;2023-10-09T12:22:59;23.00;1.00
1602;DHT22;794;48.592;9.634;2023-10-09T12:25:27;22.90;1.00
1602;DHT22;794;48.592;9.634;2023-10-09T12:28:02;22.70;1.00
1602;DHT22;794;48.592;9.634;2023-10-09T12:30:29;22.50;1.00
1602;DHT22;794;48.592;9.634;2023-10-09T12:33:05;22.40;1.00
1602;DHT22;794;48.592;9.634;2023-10-09T12:35:36;22.30;1.00
1602;DHT22;794;48.592;9.634;2023-10-09T12:38:04;22.30;1.00
1602;DHT22;794;48.592;9.634;2023-10-09T12:40:35;22.30;1.00
1602;DHT22;794;48.592;9.634;2023-10-09T12:43:13;22.30;1.00
1602;DHT22;794;48.592;9.634;2023-10-09T12:45:50;22.70;1.00
1602;DHT22;794;48.592;9.634;2023-10-09T12:48:59;22.60;1.00
1602;DHT22;794;48.592;9.634;2023-10-09T12:52:30;22.00;1.00
1602;DHT22;794;48.592;9.634;2023-10-09T12:55:15;22.40;1.00
1602;DHT22;794;48.592;9.634;2023-10-09T12:58:07;23.40;1.00
1602;DHT22;794;48.592;9.634;2023-10-09T13:00:50;23.40;1.00
1602;DHT22;794;48.592;9.634;2023-10-09T13:03:27;23.50;1.00
1602;DHT22;794;48.592;9.634;2023-10-09T13:06:14;23.50;1.00
1602;DHT22;794;48.592;9.634;2023-10-09T13:09:01;23.00;1.00
1602;DHT22;794;48.592;9.634;2023-10-09T13:15:27;23.50;1.00
1602;DHT22;794;48.592;9.634;2023-10-09T13:24:27;22.30;1.00
1602;DHT22;794;48.592;9.634;2023-10-09T13:26:55;23.10;1.00
1602;DHT22;794;48.592;9.634;2023-10-09T13:29:40;22.90;1.00
1602;DHT22;794;48.592;9.634;2023-10-09T13:32:22;23.30;1.00
1602;DHT22;794;48.592;9.634;2023-10-09T13:35:09;23.10;1.00
1602;DHT22;794;48.592;9.634;2023-10-09T13:37:53;21.60;1.00
1602;DHT22;794;48.592;9.634;2023-10-09T13:40:39;23.00;1.00
1602;DHT22;794;48.592;9.634;2023-10-09T13:43:10;23.00;1.00
1602;DHT22;794;48.592;9.634;2023-10-09T13:45:53;23.00;1.00
1602;DHT22;794;48.592;9.634;2023-10-09T13:48:32;23.10;1.00
1602;DHT22;794;48.592;9.634;2023-10-09T13:55:24;21.50;1.00
1602;DHT22;794;48.592;9.634;2023-10-09T14:00:51;22.30;1.00
1602;DHT22;794;48.592;9.634;2023-10-09T14:03:45;22.70;1.00
1602;DHT22;794;48.592;9.634;2023-10-09T14:06:18;22.50;1.00
1602;DHT22;794;48.592;9.634;2023-10-09T14:08:59;22.10;1.00
1602;DHT22;794;48.592;9.634;2023-10-09T14:11:31;22.10;1.00
1602;DHT22;794;48.592;9.634;2023-10-09T14:14:06;22.00;1.00
1602;DHT22;794;48.592;9.634;2023-10-09T14:16:40;22.00;1.00
1602;DHT22;794;48.592;9.634;2023-10-09T14:19:11;21.80;1.00
1602;DHT22;794;48.592;9.634;2023-10-09T14:21:40;22.00;1.00
1602;DHT22;794;48.592;9.634;2023-10-09T14:24:13;21.90;1.00
1602;DHT22;794;48.592;9.634;2023-10-09T14:26:45;22.10;1.00
1602;DHT22;794;48.592;9.634;2023-10-09T14:29:15;22.20;1.00
1602;DHT22;794;48.592;9.634;2023-10-09T14:31:44;22.20;1.00
1602;DHT22;794;48.592;9.634;2023-10-09T14:34:32;22.20;1.00
1602;DHT22;794;48.592;9.634;2023-10-09T14:37:03;22.50;1.00
1602;DHT22;794;48.592;9.634;2023-10-09T14:39:32;22.40;1.00
1602;DHT22;794;48.592;9.634;2023-10-09T14:42:02;22.60;1.00
1602;DHT22;794;48.592;9.634;2023-10-09T14:44:35;22.40;1.00
1602;DHT22;794;48.592;9.634;2023-10-09T14:47:05;22.60;1.00
1602;DHT22;794;48.592;9.634;2023-10-09T14:49:34;22.70;1.00
1602;DHT22;794;48.592;9.634;2023-10-09T14:52:03;22.20;1.00
1602;DHT22;794;48.592;9.634;2023-10-09T14:54:32;22.20;1.00
1602;DHT22;794;48.592;9.634;2023-10-09T14:57:13;22.30;1.00
1602;DHT22;794;48.592;9.634;2023-10-09T14:59:51;22.20;1.00
1602;DHT22;794;48.592;9.634;2023-10-09T15:02:34;22.40;1.00
1602;DHT22;794;48.592;9.634;2023-10-09T15:05:24;22.40;1.00
1602;DHT22;794;48.592;9.634;2023-10-09T15:08:06;22.20;1.00
1602;DHT22;794;48.592;9.634;2023-10-09T15:11:16;22.30;1.00
1602;DHT22;794;48.592;9.634;2023-10-09T15:13:59;22.60;1.00
1602;DHT22;794;48.592;9.634;2023-10-09T15:16:27;22.40;1.00
1602;DHT22;794;48.592;9.634;2023-10-09T15:18:57;22.10;1.00
1602;DHT22;794;48.592;9.634;2023-10-09T15:21:28;22.10;1.00
1602;DHT22;794;48.592;9.634;2023-10-09T15:24:00;22.20;1.00
1602;DHT22;794;48.592;9.634;2023-10-09T15:26:34;22.00;1.00
1602;DHT22;794;48.592;9.634;2023-10-09T15:29:04;21.60;1.00
1602;DHT22;794;48.592;9.634;2023-10-09T15:31:32;21.80;1.00
1602;DHT22;794;48.592;9.634;2023-10-09T15:34:01;21.80;1.00
1602;DHT22;794;48.592;9.634;2023-10-09T15:36:35;21.60;1.00
1602;DHT22;794;48.592;9.634;2023-10-09T15:39:05;21.60;1.00
1602;DHT22;794;48.592;9.634;2023-10-09T15:41:39;21.70;1.00
1602;DHT22;794;48.592;9.634;2023-10-09T15:44:10;21.50;1.00
1602;DHT22;794;48.592;9.634;2023-10-09T15:46:42;21.50;1.00
1602;DHT22;794;48.592;9.634;2023-10-09T15:49:12;21.40;1.00
1602;DHT22;794;48.592;9.634;2023-10-09T15:51:41;21.20;1.00
1602;DHT22;794;48.592;9.634;2023-10-09T15:54:12;21.00;1.00
1602;DHT22;794;48.592;9.634;2023-10-09T15:56:46;20.90;1.00
1602;DHT22;794;48.592;9.634;2023-10-09T15:59:14;20.80;1.00
1602;DHT22;794;48.592;9.634;2023-10-09T16:01:42;20.70;1.00
1602;DHT22;794;48.592;9.634;2023-10-09T16:04:23;20.40;1.00
1602;DHT22;794;48.592;9.634;2023-10-09T16:06:58;20.30;1.00
1602;DHT22;794;48.592;9.634;2023-10-09T16:09:27;19.90;1.00
1602;DHT22;794;48.592;9.634;2023-10-09T16:12:00;20.40;1.00
1602;DHT22;794;48.592;9.634;2023-10-09T16:14:27;20.10;1.00
1602;DHT22;794;48.592;9.634;2023-10-09T16:17:02;20.20;1.00
1602;DHT22;794;48.592;9.634;2023-10-09T16:19:40;19.70;1.00
1602;DHT22;794;48.592;9.634;2023-10-09T16:22:09;19.70;1.00
1602;DHT22;794;48.592;9.634;2023-10-09T16:24:40;19.50;1.00
1602;DHT22;794;48.592;9.634;2023-10-09T16:27:24;19.30;1.00
1602;DHT22;794;48.592;9.634;2023-10-09T16:29:54;19.50;1.00
1602;DHT22;794;48.592;9.634;2023-10-09T16:32:24;19.20;1.00
1602;DHT22;794;48.592;9.634;2023-10-09T16:34:53;19.00;1.00
1602;DHT22;794;48.592;9.634;2023-10-09T16:37:27;18.90;1.00
1602;DHT22;794;48.592;9.634;2023-10-09T16:43:23;20.40;1.00
1602;DHT22;794;48.592;9.634;2023-10-09T16:46:20;18.30;1.00
1602;DHT22;794;48.592;9.634;2023-10-09T16:49:00;18.10;1.00
1602;DHT22;794;48.592;9.634;2023-10-09T16:51:44;18.20;1.00
1602;DHT22;794;48.592;9.634;2023-10-09T16:54:14;16.30;1.00
1602;DHT22;794;48.592;9.634;2023-10-09T16:57:06;17.60;1.00
1602;DHT22;794;48.592;9.634;2023-10-09T16:59:47;18.40;1.00
1602;DHT22;794;48.592;9.634;2023-10-09T17:02:35;18.70;1.00
1602;DHT22;794;48.592;9.634;2023-10-09T17:05:19;18.40;1.00
1602;DHT22;794;48.592;9.634;2023-10-09T17:08:15;15.50;1.00
1602;DHT22;794;48.592;9.634;2023-10-09T17:10:50;15.60;1.00
1602;DHT22;794;48.592;9.634;2023-10-09T17:13:23;16.70;1.00
1602;DHT22;794;48.592;9.634;2023-10-09T17:15:59;16.30;1.00
1602;DHT22;794;48.592;9.634;2023-10-09T17:18:36;16.70;1.00
1602;DHT22;794;48.592;9.634;2023-10-09T17:21:09;16.30;1.00
1602;DHT22;794;48.592;9.634;2023-10-09T17:23:41;16.60;1.00
1602;DHT22;794;48.592;9.634;2023-10-09T17:26:10;16.20;1.00
1602;DHT22;794;48.592;9.634;2023-10-09T17:28:44;16.00;1.00
1602;DHT22;794;48.592;9.634;2023-10-09T17:31:18;14.70;1.00
1602;DHT22;794;48.592;9.634;2023-10-09T17:33:46;15.90;1.00
1602;DHT22;794;48.592;9.634;2023-10-09T17:36:18;15.90;1.00
1602;DHT22;794;48.592;9.634;2023-10-09T17:42:15;15.60;1.00
1602;DHT22;794;48.592;9.634;2023-10-09T17:44:45;15.50;1.00
1602;DHT22;794;48.592;9.634;2023-10-09T17:47:12;15.50;1.00
1602;DHT22;794;48.592;9.634;2023-10-09T17:49:40;15.60;1.00
1602;DHT22;794;48.592;9.634;2023-10-09T17:52:09;15.50;1.00
1602;DHT22;794;48.592;9.634;2023-10-09T17:54:37;15.30;1.00
1602;DHT22;794;48.592;9.634;2023-10-09T17:57:05;15.40;1.00
1602;DHT22;794;48.592;9.634;2023-10-09T17:59:35;15.20;1.00
1602;DHT22;794;48.592;9.634;2023-10-09T18:02:06;15.20;1.00